Resums METAR propers

 

LEGE - Gerona/Costa Bra, Spain
Distància des de l'estació: S 12km
Actualització: 25/06/2019 09:30
Seré
Seré
 Vent del NNE
Vent: NNE 17 km/h
Temperatura: 75°F , 24°C
Rosada: 59°F , 15°C
Humitat: 57%
Baròmetre: 1018 hPa
Resum: Seré
Visibilitat: major de 10 km
2019/06/25 07:30 LEGE 250730Z 02009KT CAVOK 24/15 Q1018